Time;durP1;ratioP1;P1;durP2;ratioP2;P2;SDS_P1;SDS_P2;PMS_P1;PMS_P2;Temp;Humidity;BMP_temperature;BMP_pressure;BME280_temperature;BME280_humidity;BME280_pressure;Samples;Min_cycle;Max_cycle;Signal;HPM_P1;HPM_P2
2023/01/10 08:59:07;;;;;;;;;;;;;;;8.45;100.00;100218.16;5191573;23;19932;-93
2023/01/10 09:01:32;;;;;;;;;;;;;;;8.43;100.00;100216.47;5044940;28;19921;-90
2023/01/10 09:03:58;;;;;;;;;;;;;;;8.43;100.00;100227.03;5045598;28;19923;-94
2023/01/10 09:06:23;;;;;;;;;;;;;;;8.90;100.00;100228.38;5058419;28;20315;-84
2023/01/10 09:08:49;;;;;;;;;;;;;;;8.69;100.00;100231.63;5055584;28;20363;-87
2023/01/10 09:11:14;;;;;;;;;;;;;;;8.58;100.00;100228.41;5045678;28;19920;-85
2023/01/10 09:13:41;;;;;;;;;;;;;;;8.58;100.00;100236.34;5058034;28;19917;-87
2023/01/10 09:16:06;;;;;;;;;;;;;;;8.57;100.00;100237.22;5055874;28;19921;-86
2023/01/10 09:18:32;;;;;;;;;;;;;;;8.59;100.00;100238.94;5061054;28;20272;-84
2023/01/10 09:20:58;;;;;;;;;;;;;;;8.63;100.00;100239.72;5075592;28;20353;-84
2023/01/10 09:23:23;;;;;;;;;;;;;;;8.62;100.00;100240.63;5070619;28;19924;-89
2023/01/10 09:25:50;;;;;;;;;;;;;;;9.06;100.00;100249.94;5054662;28;19920;-84
2023/01/10 09:28:15;;;;;;;;;;;;;;;8.43;100.00;100256.06;5054118;28;19960;-90
2023/01/10 09:30:41;;;;;;;;;;;;;;;7.21;100.00;100253.69;5037686;28;19972;-87
2023/01/10 09:33:08;;;;;;;;;;;;;;;6.90;100.00;100256.97;5055563;28;20473;-90
2023/01/10 09:35:35;;;;;;;;;;;;;;;6.54;100.00;100262.94;5072727;28;19921;-87
2023/01/10 09:38:00;;;;;;;;;;;;;;;6.37;100.00;100267.66;5075583;28;19955;-88
2023/01/10 09:40:31;;;;;;;;;;;;;;;6.25;100.00;100266.09;5057561;28;20009;-90
2023/01/10 09:43:14;;;;;;;;;;;;;;;6.10;100.00;100261.97;5055339;28;20025;-87
2023/01/10 09:45:51;;;;;;;;;;;;;;;5.99;100.00;100264.75;5042216;28;19920;-87
2023/01/10 09:48:39;;;;;;;;;;;;;;;5.90;100.00;100267.50;5040885;28;20380;-91
2023/01/10 09:51:11;;;;;;;;;;;;;;;5.74;100.00;100271.28;5049674;28;19927;-91
2023/01/10 09:53:39;;;;;;;;;;;;;;;5.68;100.00;100276.63;5074327;28;19916;-88
2023/01/10 09:56:06;;;;;;;;;;;;;;;5.59;100.00;100270.63;5046359;28;19921;-92
2023/01/10 09:58:33;;;;;;;;;;;;;;;5.54;100.00;100268.97;5055804;28;19931;-91
2023/01/10 10:01:02;;;;;;;;;;;;;;;5.46;100.00;100271.69;5057056;28;20386;-91
2023/01/10 10:03:27;;;;;;;;;;;;;;;5.40;100.00;100272.63;5074898;28;19952;-88
2023/01/10 10:05:52;;;;;;;;;;;;;;;5.37;100.00;100271.81;5048532;28;19963;-89
2023/01/10 10:08:18;;;;;;;;;;;;;;;5.38;100.00;100268.31;5032940;28;19974;-91
2023/01/10 10:10:53;;;;;;;;;;;;;;;5.30;100.00;100257.00;5037124;28;20003;-91
2023/01/10 10:13:48;;;;;;;;;;;;;;;5.18;100.00;100258.91;5053594;28;20287;-85
2023/01/10 10:16:32;;;;;;;;;;;;;;;5.16;100.00;100260.69;5020353;28;19921;-85
2023/01/10 10:19:16;;;;;;;;;;;;;;;5.02;100.00;100263.50;5054653;28;20295;-87
2023/01/10 10:21:53;;;;;;;;;;;;;;;8.96;100.00;100271.38;5050346;28;19967;-83
2023/01/10 10:24:34;;;;;;;;;;;;;;;7.01;100.00;100268.16;5068733;28;20353;-85
2023/01/10 10:27:11;;;;;;;;;;;;;;;5.88;100.00;100279.81;5043534;28;19920;-86
2023/01/10 10:29:53;;;;;;;;;;;;;;;5.52;100.00;100273.34;5054153;28;20435;-89
2023/01/10 10:32:21;;;;;;;;;;;;;;;5.32;100.00;100277.13;5071971;28;19923;-90
2023/01/10 10:34:48;;;;;;;;;;;;;;;5.23;100.00;100272.88;5074226;28;19917;-84
2023/01/10 10:37:32;;;;;;;;;;;;;;;5.11;100.00;100265.16;5055837;28;19946;-85
2023/01/10 10:40:03;;;;;;;;;;;;;;;5.04;100.00;100268.72;5057585;28;19944;-86
2023/01/10 10:42:31;;;;;;;;;;;;;;;5.04;100.00;100261.75;5034948;28;19917;-91
2023/01/10 10:44:57;;;;;;;;;;;;;;;4.95;100.00;100255.75;5043961;28;20379;-84
2023/01/10 10:47:23;;;;;;;;;;;;;;;4.88;100.00;100261.06;5046733;28;19920;-84
2023/01/10 10:50:03;;;;;;;;;;;;;;;4.81;100.00;100259.38;5066197;28;19986;-88
2023/01/10 10:52:33;;;;;;;;;;;;;;;4.76;100.00;100258.56;5055025;28;19916;-84
2023/01/10 10:54:59;;;;;;;;;;;;;;;4.80;100.00;100243.66;5036123;28;19917;-88
2023/01/10 10:57:26;;;;;;;;;;;;;;;4.73;100.00;100241.09;5055665;28;19946;-86
2023/01/10 10:59:51;;;;;;;;;;;;;;;4.72;100.00;100235.84;5047311;28;20019;-86
2023/01/10 11:02:20;;;;;;;;;;;;;;;4.71;100.00;100234.13;5067198;28;19955;-86
2023/01/10 11:04:46;;;;;;;;;;;;;;;4.70;100.00;100235.00;5042220;28;19963;-86
2023/01/10 11:07:15;;;;;;;;;;;;;;;5.39;100.00;100227.97;5039342;28;19972;-85
2023/01/10 11:10:02;;;;;;;;;;;;;;;5.88;100.00;100234.25;5065026;28;19916;-85
2023/01/10 11:12:30;;;;;;;;;;;;;;;6.18;100.00;100215.31;5053364;28;19923;-85
2023/01/10 11:14:57;;;;;;;;;;;;;;;6.33;100.00;100211.56;5053663;28;19917;-85
2023/01/10 11:17:23;;;;;;;;;;;;;;;6.47;100.00;100202.53;5035329;28;19917;-91
2023/01/10 11:19:56;;;;;;;;;;;;;;;6.59;100.00;100210.19;5039246;28;19974;-86
2023/01/10 11:22:21;;;;;;;;;;;;;;;6.68;100.00;100204.72;5053419;28;20303;-85
2023/01/10 11:25:13;;;;;;;;;;;;;;;6.77;100.00;100210.72;5036439;28;19932;-87
2023/01/10 11:28:06;;;;;;;;;;;;;;;6.85;100.00;100203.53;5039807;28;19917;-86
2023/01/10 11:30:32;;;;;;;;;;;;;;;6.94;100.00;100207.72;5049507;28;19973;-89
2023/01/10 11:33:01;;;;;;;;;;;;;;;6.98;100.00;100193.59;5066850;28;19924;-87
2023/01/10 11:35:26;;;;;;;;;;;;;;;7.03;100.00;100203.13;5073285;28;20046;-90
2023/01/10 11:37:58;;;;;;;;;;;;;;;7.09;100.00;100195.09;5055345;28;19970;-86
2023/01/10 11:40:26;;;;;;;;;;;;;;;7.12;100.00;100196.81;5055169;28;20402;-88
2023/01/10 11:42:53;;;;;;;;;;;;;;;7.18;100.00;100190.50;5042814;28;19932;-85
2023/01/10 11:45:18;;;;;;;;;;;;;;;7.20;100.00;100186.94;5051600;28;19921;-85
2023/01/10 11:48:13;;;;;;;;;;;;;;;7.23;100.00;100175.47;5041894;28;19916;-85
2023/01/10 11:50:41;;;;;;;;;;;;;;;7.27;100.00;100177.13;5042807;28;19927;-88
2023/01/10 11:53:24;;;;;;;;;;;;;;;7.32;100.00;100177.03;5034841;28;19921;-85
2023/01/10 11:55:50;;;;;;;;;;;;;;;7.34;100.00;100168.19;5052977;28;20059;-85
2023/01/10 11:58:15;;;;;;;;;;;;;;;7.38;100.00;100166.34;5051544;28;19968;-87
2023/01/10 12:00:48;;;;;;;;;;;;;;;7.41;100.00;100156.56;5035120;28;20383;-87
2023/01/10 12:03:22;;;;;;;;;;;;;;;7.44;100.00;100159.13;5052558;28;19905;-86
2023/01/10 12:05:53;;;;;;;;;;;;;;;7.48;100.00;100156.44;5034732;28;19960;-87
2023/01/10 12:08:24;;;;;;;;;;;;;;;7.51;100.00;100153.72;5053000;28;20330;-88
2023/01/10 12:11:01;;;;;;;;;;;;;;;7.54;100.00;100143.97;5037762;28;20283;-86
2023/01/10 12:13:29;;;;;;;;;;;;;;;7.55;100.00;100144.84;5034992;28;19917;-89
2023/01/10 12:16:18;;;;;;;;;;;;;;;7.58;100.00;100145.63;5054905;28;19923;-84
2023/01/10 12:18:44;;;;;;;;;;;;;;;7.61;100.00;100136.75;5073162;28;19927;-88
2023/01/10 12:21:11;;;;;;;;;;;;;;;7.63;100.00;100138.47;5055265;28;19921;-85
2023/01/10 12:23:40;;;;;;;;;;;;;;;7.68;100.00;100132.22;5062602;28;19963;-85
2023/01/10 12:26:06;;;;;;;;;;;;;;;7.69;100.00;100140.09;5034930;28;19928;-91
2023/01/10 12:28:32;;;;;;;;;;;;;;;7.72;100.00;100137.38;5039636;28;20326;-86
2023/01/10 12:30:59;;;;;;;;;;;;;;;7.71;100.00;100127.72;5058406;28;20344;-86
2023/01/10 12:33:24;;;;;;;;;;;;;;;7.75;100.00;100134.63;5060754;28;20376;-88
2023/01/10 12:35:57;;;;;;;;;;;;;;;7.78;100.00;100129.28;5056726;28;19928;-88
2023/01/10 12:44:09;;;;;;;;;;;;;;;7.84;100.00;100119.50;5056813;28;19924;-91
2023/01/10 12:44:10;;;;;;;;;;;;;;;7.85;100.00;100106.25;5054899;28;19917;-86
2023/01/10 12:46:48;;;;;;;;;;;;;;;7.88;100.00;100111.47;5046781;28;19972;-91
2023/01/10 12:49:35;;;;;;;;;;;;;;;7.92;100.00;100112.25;5044575;28;19920;-89
2023/01/10 12:52:04;;;;;;;;;;;;;;;7.93;100.00;100106.03;5057112;28;20016;-89
2023/01/10 12:54:29;;;;;;;;;;;;;;;7.96;100.00;100109.47;5038163;28;20394;-86
2023/01/10 12:56:57;;;;;;;;;;;;;;;7.98;100.00;100109.44;5052362;28;19928;-90
2023/01/10 12:59:46;;;;;;;;;;;;;;;7.99;100.00;100100.59;5054921;28;19972;-89
2023/01/10 13:02:16;;;;;;;;;;;;;;;8.03;100.00;100096.97;5046227;28;19924;-87
2023/01/10 13:04:43;;;;;;;;;;;;;;;8.05;100.00;100097.78;5055658;28;19917;-90
2023/01/10 13:07:10;;;;;;;;;;;;;;;8.06;100.00;100101.28;5059546;28;20378;-87
2023/01/10 13:09:36;;;;;;;;;;;;;;;8.07;100.00;100095.97;5057733;28;19912;-89
2023/01/10 13:12:05;;;;;;;;;;;;;;;8.09;100.00;100095.94;5074806;28;20007;-90
2023/01/10 13:14:36;;;;;;;;;;;;;;;8.10;100.00;100095.88;5057638;28;19916;-91
2023/01/10 13:17:16;;;;;;;;;;;;;;;8.12;100.00;100099.38;5057905;28;19979;-87
2023/01/10 13:19:42;;;;;;;;;;;;;;;8.15;100.00;100096.66;5049056;28;19944;-89
2023/01/10 13:22:30;;;;;;;;;;;;;;;8.17;100.00;100101.88;5057643;28;19921;-85
2023/01/10 13:24:56;;;;;;;;;;;;;;;8.18;100.00;100100.97;5056667;28;20816;-89
2023/01/10 13:27:22;;;;;;;;;;;;;;;8.19;100.00;100110.63;5045896;28;19947;-90
2023/01/10 13:29:48;;;;;;;;;;;;;;;8.20;100.00;100099.16;5054410;28;20378;-87
2023/01/10 13:32:25;;;;;;;;;;;;;;;8.22;100.00;100099.09;5051961;28;19943;-88
2023/01/10 13:34:51;;;;;;;;;;;;;;;8.23;100.00;100103.47;5038599;28;20004;-88
2023/01/10 13:37:36;;;;;;;;;;;;;;;8.25;100.00;100101.66;5037623;28;20407;-90
2023/01/10 13:40:03;;;;;;;;;;;;;;;8.24;100.00;100099.94;5037724;28;20410;-89
2023/01/10 13:45:13;;;;;;;;;;;;;;;8.26;100.00;100092.81;5057842;28;19922;-89
2023/01/10 13:47:39;;;;;;;;;;;;;;;8.27;100.00;100084.00;5046858;28;19920;-87
2023/01/10 13:50:23;;;;;;;;;;;;;;;8.29;100.00;100082.19;5054122;28;19923;-88
2023/01/10 13:52:48;;;;;;;;;;;;;;;8.29;100.00;100066.34;5058068;28;19982;-88
2023/01/10 13:55:27;;;;;;;;;;;;;;;8.31;100.00;100061.88;5047294;28;20376;-88
2023/01/10 13:57:52;;;;;;;;;;;;;;;8.31;100.00;100065.41;5035716;28;20011;-87
2023/01/10 14:03:35;;;;;;;;;;;;;;;8.33;100.00;100070.63;5062903;28;20037;-92
2023/01/10 14:06:01;;;;;;;;;;;;;;;8.34;100.00;100064.41;5056938;28;19943;-91
2023/01/10 14:08:28;;;;;;;;;;;;;;;8.34;100.00;100064.41;5049660;28;19943;-92
2023/01/10 14:11:06;;;;;;;;;;;;;;;8.35;100.00;100063.53;5032164;28;20279;-92
2023/01/10 14:13:31;;;;;;;;;;;;;;;8.37;100.00;100059.06;5035802;28;19968;-93
2023/01/10 14:15:57;;;;;;;;;;;;;;;8.35;100.00;100061.75;5037157;28;19994;-90
2023/01/10 14:18:31;;;;;;;;;;;;;;;8.36;100.00;100060.00;5036827;28;19917;-91
2023/01/10 14:20:59;;;;;;;;;;;;;;;8.37;100.00;100053.78;5052761;28;20451;-90
2023/01/10 14:23:30;;;;;;;;;;;;;;;8.37;100.00;100053.78;5074652;28;19962;-91
2023/01/10 14:25:56;;;;;;;;;;;;;;;8.39;100.00;100046.66;5055366;28;19917;-88
2023/01/10 14:28:29;;;;;;;;;;;;;;;8.41;100.00;100052.78;5073349;28;19926;-88
2023/01/10 14:31:03;;;;;;;;;;;;;;;8.43;100.00;100052.75;5056407;28;19917;-88
2023/01/10 14:33:29;;;;;;;;;;;;;;;8.41;100.00;100047.50;5074208;28;19923;-89
2023/01/10 14:35:58;;;;;;;;;;;;;;;8.42;100.00;100045.72;5056169;28;19916;-89
2023/01/10 14:38:30;;;;;;;;;;;;;;;8.43;100.00;100032.50;5074160;28;20385;-92
2023/01/10 14:40:57;;;;;;;;;;;;;;;8.47;100.00;100026.22;5074078;28;19970;-92
2023/01/10 14:43:27;;;;;;;;;;;;;;;8.46;100.00;100021.84;5059387;28;20164;-93
2023/01/10 14:46:14;;;;;;;;;;;;;;;8.46;100.00;100021.84;5065286;28;20011;-93
2023/01/10 14:48:40;;;;;;;;;;;;;;;8.46;100.00;100024.50;5046952;28;19926;-87
2023/01/10 14:51:11;;;;;;;;;;;;;;;8.48;100.00;100022.66;5040524;28;20007;-90
2023/01/10 14:53:38;;;;;;;;;;;;;;;8.47;100.00;100020.94;5067181;28;20487;-87
2023/01/10 14:56:15;;;;;;;;;;;;;;;8.49;100.00;100019.13;5060743;28;19925;-91
2023/01/10 14:58:41;;;;;;;;;;;;;;;8.50;100.00;100022.63;5046615;28;20395;-87
2023/01/10 15:01:21;;;;;;;;;;;;;;;8.50;100.00;100018.22;5056201;28;19950;-86
2023/01/10 15:03:46;;;;;;;;;;;;;;;8.51;100.00;100013.78;5045317;28;20302;-90
2023/01/10 15:06:11;;;;;;;;;;;;;;;8.50;100.00;100020.88;5054883;28;20007;-90
2023/01/10 15:08:36;;;;;;;;;;;;;;;8.52;100.00;100020.78;5058735;28;19916;-91
2023/01/10 15:11:04;;;;;;;;;;;;;;;8.51;100.00;100025.22;5060885;28;19920;-89
2023/01/10 15:13:32;;;;;;;;;;;;;;;8.51;100.00;100019.94;5045702;28;20261;-86
2023/01/10 15:15:58;;;;;;;;;;;;;;;8.52;100.00;100018.13;5040222;28;19921;-91
2023/01/10 15:18:23;;;;;;;;;;;;;;;8.53;100.00;100012.81;5056067;28;20387;-89
2023/01/10 15:20:49;;;;;;;;;;;;;;;8.54;100.00;100019.84;5042387;28;19927;-89
2023/01/10 15:23:14;;;;;;;;;;;;;;;8.55;100.00;100018.03;5040657;28;20019;-89
2023/01/10 15:25:40;;;;;;;;;;;;;;;8.56;100.00;100016.28;5041239;28;19952;-87
2023/01/10 15:28:16;;;;;;;;;;;;;;;8.56;100.00;100022.44;5040697;28;19970;-93
2023/01/10 15:30:42;;;;;;;;;;;;;;;8.56;100.00;100003.94;5041108;28;19925;-86
2023/01/10 15:33:21;;;;;;;;;;;;;;;8.57;100.00;99996.88;5057502;28;19920;-86
2023/01/10 15:35:47;;;;;;;;;;;;;;;8.58;100.00;100003.91;5047707;28;19920;-89
2023/01/10 15:38:13;;;;;;;;;;;;;;;7.39;100.00;100000.22;5035010;28;19921;-86
2023/01/10 15:40:40;;;;;;;;;;;;;;;6.83;100.00;99995.47;5042626;28;19921;-87
2023/01/10 15:43:17;;;;;;;;;;;;;;;6.39;100.00;99981.56;5039930;28;19940;-87
2023/01/10 15:45:46;;;;;;;;;;;;;;;6.22;100.00;99981.94;5052604;28;19975;-89
2023/01/10 15:48:29;;;;;;;;;;;;;;;5.98;100.00;99984.22;5037262;28;19921;-85
2023/01/10 15:50:58;;;;;;;;;;;;;;;5.91;100.00;99985.19;5046540;28;19955;-87
2023/01/10 15:53:42;;;;;;;;;;;;;;;5.79;100.00;99988.06;5057394;28;20407;-85
2023/01/10 15:56:10;;;;;;;;;;;;;;;5.67;100.00;99985.69;5050685;28;19959;-87
2023/01/10 15:58:35;;;;;;;;;;;;;;;5.66;100.00;99976.06;5042065;28;19920;-87
2023/01/10 16:01:01;;;;;;;;;;;;;;;5.50;100.00;99973.72;5045558;28;19938;-89
2023/01/10 16:03:34;;;;;;;;;;;;;;;5.50;100.00;99971.09;5035005;28;19944;-86
2023/01/10 16:06:01;;;;;;;;;;;;;;;5.32;100.00;99960.94;5044056;28;19931;-86
2023/01/10 16:08:29;;;;;;;;;;;;;;;5.32;100.00;99969.69;5051925;28;19956;-87
2023/01/10 16:10:59;;;;;;;;;;;;;;;5.28;100.00;99963.63;5043856;28;19924;-86
2023/01/10 16:13:27;;;;;;;;;;;;;;;5.26;100.00;99962.81;5038023;28;19943;-89
2023/01/10 16:15:54;;;;;;;;;;;;;;;5.19;100.00;99957.69;5051601;28;19921;-85
2023/01/10 16:18:19;;;;;;;;;;;;;;;5.20;100.00;99957.66;5056418;28;19920;-85
2023/01/10 16:20:46;;;;;;;;;;;;;;;5.14;100.00;99956.88;5057665;28;19921;-86
2023/01/10 16:23:24;;;;;;;;;;;;;;;5.02;100.00;99948.31;5054126;28;20235;-86
2023/01/10 16:25:51;;;;;;;;;;;;;;;5.03;100.00;99951.84;5065690;28;19927;-87
2023/01/10 16:28:17;;;;;;;;;;;;;;;5.04;100.00;99943.94;5057614;28;19917;-87
2023/01/10 16:30:50;;;;;;;;;;;;;;;4.97;100.00;99944.91;5072983;28;19920;-86
2023/01/10 16:33:23;;;;;;;;;;;;;;;5.00;100.00;99949.25;5048064;28;19920;-90
2023/01/10 16:35:53;;;;;;;;;;;;;;;4.97;100.00;99949.31;5046005;28;19928;-87
2023/01/10 16:38:18;;;;;;;;;;;;;;;4.95;100.00;99943.22;5067832;28;20019;-90
2023/01/10 16:40:48;;;;;;;;;;;;;;;4.85;100.00;99953.00;5044833;28;20066;-91
2023/01/10 16:43:28;;;;;;;;;;;;;;;4.83;100.00;99953.03;5068266;28;19913;-89
2023/01/10 16:46:03;;;;;;;;;;;;;;;4.82;100.00;99946.06;5056677;28;19925;-90
2023/01/10 16:48:30;;;;;;;;;;;;;;;4.78;100.00;99941.72;5047321;28;19919;-86
2023/01/10 16:51:26;;;;;;;;;;;;;;;4.75;100.00;99938.31;5061773;28;20011;-85
2023/01/10 16:53:51;;;;;;;;;;;;;;;4.70;100.00;99938.38;5044682;28;19921;-89
2023/01/10 16:56:18;;;;;;;;;;;;;;;4.76;100.00;99933.03;5059648;28;19931;-86
2023/01/10 16:58:43;;;;;;;;;;;;;;;4.64;100.00;99930.59;5054538;28;19925;-86
2023/01/10 17:01:16;;;;;;;;;;;;;;;4.64;100.00;99927.97;5050868;28;20294;-89
2023/01/10 17:03:42;;;;;;;;;;;;;;;4.67;100.00;99935.78;5063001;28;20052;-86
2023/01/10 17:06:09;;;;;;;;;;;;;;;4.58;100.00;99936.81;5055051;28;20036;-89
2023/01/10 17:08:34;;;;;;;;;;;;;;;4.64;100.00;99927.97;5056048;28;19924;-87
2023/01/10 17:11:01;;;;;;;;;;;;;;;4.59;100.00;99928.03;5055824;28;19913;-85
2023/01/10 17:13:34;;;;;;;;;;;;;;;4.93;100.00;99921.34;5036741;28;19917;-89
2023/01/10 17:16:00;;;;;;;;;;;;;;;5.59;100.00;99909.63;5054845;28;19921;-86
2023/01/10 17:18:27;;;;;;;;;;;;;;;5.93;100.00;99912.38;5055722;28;19917;-88
2023/01/10 17:20:52;;;;;;;;;;;;;;;6.15;100.00;99906.69;5055771;28;20011;-88
2023/01/10 17:23:18;;;;;;;;;;;;;;;6.31;100.00;99912.47;5054666;28;19955;-87
2023/01/10 17:25:45;;;;;;;;;;;;;;;6.44;100.00;99898.09;5028753;28;19925;-85
2023/01/10 17:28:11;;;;;;;;;;;;;;;6.56;100.00;99894.31;5047297;28;20000;-88
2023/01/10 17:30:40;;;;;;;;;;;;;;;6.62;100.00;99891.53;5034365;28;20360;-89
2023/01/10 17:33:09;;;;;;;;;;;;;;;6.69;100.00;99879.94;5017529;28;19917;-86
2023/01/10 17:35:37;;;;;;;;;;;;;;;6.77;100.00;99878.88;5046714;28;19924;-87
2023/01/10 17:38:03;;;;;;;;;;;;;;;6.86;100.00;99870.72;5034263;28;19964;-87
2023/01/10 17:40:28;;;;;;;;;;;;;;;6.90;100.00;99864.47;5037076;28;19944;-87
2023/01/10 17:42:53;;;;;;;;;;;;;;;6.96;100.00;99868.72;5035581;28;19917;-86
2023/01/10 17:45:19;;;;;;;;;;;;;;;7.00;100.00;99865.09;5036244;28;19944;-86
2023/01/10 17:47:44;;;;;;;;;;;;;;;7.05;100.00;99866.72;5034584;28;19948;-90
2023/01/10 17:50:09;;;;;;;;;;;;;;;7.08;100.00;99869.25;5043476;28;19921;-84
2023/01/10 17:52:34;;;;;;;;;;;;;;;7.15;100.00;99874.34;5039143;28;19917;-91
2023/01/10 17:55:02;;;;;;;;;;;;;;;7.19;100.00;99862.81;5035115;28;20423;-90
2023/01/10 17:57:27;;;;;;;;;;;;;;;7.23;100.00;99859.22;5039459;28;19917;-92
2023/01/10 17:59:52;;;;;;;;;;;;;;;7.32;100.00;99855.44;5033957;28;19928;-87
2023/01/10 18:02:17;;;;;;;;;;;;;;;7.55;100.00;99847.72;5035044;28;19921;-86
2023/01/10 18:04:43;;;;;;;;;;;;;;;7.48;100.00;99845.31;5035044;28;20348;-85
2023/01/10 18:07:09;;;;;;;;;;;;;;;7.45;100.00;99844.50;5039335;28;19921;-89
2023/01/10 18:09:34;;;;;;;;;;;;;;;7.46;100.00;99843.56;5050222;28;20287;-89
2023/01/10 18:11:59;;;;;;;;;;;;;;;7.49;100.00;99842.63;5053904;28;19913;-85
2023/01/10 18:14:36;;;;;;;;;;;;;;;7.52;100.00;99833.78;5054529;28;19924;-90
2023/01/10 18:17:03;;;;;;;;;;;;;;;7.56;100.00;99840.66;5033755;28;19925;-89
2023/01/10 18:19:29;;;;;;;;;;;;;;;7.58;100.00;99836.25;5043459;28;19968;-89
2023/01/10 18:21:57;;;;;;;;;;;;;;;7.61;100.00;99836.13;5032438;28;19956;-89
2023/01/10 18:24:22;;;;;;;;;;;;;;;7.61;100.00;99826.44;5035465;28;20367;-87
2023/01/10 18:26:47;;;;;;;;;;;;;;;7.65;100.00;99829.84;5047158;28;19925;-89
2023/01/10 18:29:13;;;;;;;;;;;;;;;7.69;100.00;99825.34;5052996;28;20409;-90
2023/01/10 18:31:40;;;;;;;;;;;;;;;7.70;100.00;99820.03;5053646;28;19921;-89
2023/01/10 18:34:06;;;;;;;;;;;;;;;7.73;100.00;99819.94;5031965;28;19921;-87
2023/01/10 18:36:33;;;;;;;;;;;;;;;7.76;100.00;99822.47;5036322;28;19924;-92
2023/01/10 18:38:59;;;;;;;;;;;;;;;7.80;100.00;99816.22;5032989;28;20292;-92
2023/01/10 18:41:24;;;;;;;;;;;;;;;7.84;100.00;99808.19;5036651;28;19917;-85
2023/01/10 18:43:49;;;;;;;;;;;;;;;7.86;100.00;99814.28;5047512;28;19928;-85
2023/01/10 18:46:17;;;;;;;;;;;;;;;7.88;100.00;99808.06;5032924;28;19924;-88
2023/01/10 18:48:42;;;;;;;;;;;;;;;7.89;100.00;99793.94;5032782;28;19921;-85
2023/01/10 18:51:10;;;;;;;;;;;;;;;7.92;100.00;99795.63;5031875;28;20284;-85
2023/01/10 18:53:37;;;;;;;;;;;;;;;7.94;100.00;99793.78;5049807;28;19928;-85
2023/01/10 18:56:03;;;;;;;;;;;;;;;7.95;100.00;99793.75;5045241;28;20360;-87
2023/01/10 18:58:39;;;;;;;;;;;;;;;7.96;100.00;99798.13;5018296;28;19940;-87
2023/01/10 19:01:11;;;;;;;;;;;;;;;8.01;100.00;99797.97;5026191;28;20394;-86
2023/01/10 19:03:37;;;;;;;;;;;;;;;8.04;100.00;99786.44;5034536;28;20007;-86
2023/01/10 19:06:03;;;;;;;;;;;;;;;8.03;100.00;99788.22;5044633;28;19925;-89
2023/01/10 19:08:29;;;;;;;;;;;;;;;8.04;100.00;99792.59;5050751;28;20425;-87
2023/01/10 19:10:54;;;;;;;;;;;;;;;8.06;100.00;99792.53;5046184;28;19997;-88
2023/01/10 19:13:19;;;;;;;;;;;;;;;8.07;100.00;99787.19;5046704;28;19943;-87
2023/01/10 19:15:46;;;;;;;;;;;;;;;8.07;100.00;99781.06;5040451;28;19924;-86
2023/01/10 19:18:13;;;;;;;;;;;;;;;8.11;100.00;99790.63;5033280;28;20011;-91
2023/01/10 19:20:39;;;;;;;;;;;;;;;8.09;100.00;99782.75;5048855;28;19921;-87
2023/01/10 19:23:04;;;;;;;;;;;;;;;8.12;100.00;99779.13;5044362;28;19921;-86
2023/01/10 19:25:29;;;;;;;;;;;;;;;8.14;100.00;99783.47;5035265;28;19975;-88
2023/01/10 19:27:55;;;;;;;;;;;;;;;8.15;100.00;99779.91;5050473;28;19921;-87
2023/01/10 19:30:20;;;;;;;;;;;;;;;8.16;100.00;99773.69;5052001;28;19943;-87
2023/01/10 19:32:45;;;;;;;;;;;;;;;8.18;100.00;99768.38;5053107;28;19920;-87
2023/01/10 19:35:10;;;;;;;;;;;;;;;8.18;100.00;99771.91;5040187;28;19928;-85
2023/01/10 19:37:36;;;;;;;;;;;;;;;8.19;100.00;99765.69;5053304;28;19912;-86
2023/01/10 19:40:02;;;;;;;;;;;;;;;8.19;100.00;99765.69;5045958;28;20422;-87
2023/01/10 19:42:30;;;;;;;;;;;;;;;8.22;100.00;99769.13;5046188;28;19923;-89
2023/01/10 19:44:55;;;;;;;;;;;;;;;8.23;100.00;99760.31;5051084;28;19920;-84
2023/01/10 19:47:20;;;;;;;;;;;;;;;8.23;100.00;99762.94;5053076;28;19943;-87
2023/01/10 19:49:46;;;;;;;;;;;;;;;8.24;100.00;99760.25;5046491;28;19923;-88
2023/01/10 19:52:11;;;;;;;;;;;;;;;8.27;100.00;99759.31;5052776;28;19925;-88
2023/01/10 19:54:37;;;;;;;;;;;;;;;8.27;100.00;99759.31;5052966;28;20002;-90
2023/01/10 19:57:03;;;;;;;;;;;;;;;8.27;100.00;99752.22;5043268;28;20358;-87
2023/01/10 19:59:31;;;;;;;;;;;;;;;8.28;100.00;99750.44;5032856;28;20055;-87
2023/01/10 20:01:56;;;;;;;;;;;;;;;8.29;100.00;99750.41;5033865;28;19953;-93
2023/01/10 20:04:21;;;;;;;;;;;;;;;8.30;100.00;99748.63;5055331;28;19986;-88
2023/01/10 20:06:47;;;;;;;;;;;;;;;8.32;100.00;99744.16;5056791;28;19935;-93
2023/01/10 20:09:13;;;;;;;;;;;;;;;8.32;100.00;99736.25;5056347;28;19916;-90
2023/01/10 20:11:40;;;;;;;;;;;;;;;8.33;100.00;99737.97;5035583;28;19966;-92
2023/01/10 20:14:19;;;;;;;;;;;;;;;8.31;100.00;99737.16;5035853;28;19917;-90
2023/01/10 20:16:46;;;;;;;;;;;;;;;8.33;100.00;99735.34;5030214;28;19921;-85
2023/01/10 20:19:11;;;;;;;;;;;;;;;8.34;100.00;99726.47;5022450;28;20097;-88
2023/01/10 20:21:37;;;;;;;;;;;;;;;8.34;100.00;99727.38;5034228;28;19925;-90
2023/01/10 20:24:06;;;;;;;;;;;;;;;8.36;100.00;99724.66;5036345;28;20288;-89
2023/01/10 20:26:31;;;;;;;;;;;;;;;8.36;100.00;99724.66;5050869;28;20280;-93
2023/01/10 20:29:01;;;;;;;;;;;;;;;8.36;100.00;99725.53;5049027;28;19921;-91
2023/01/10 20:31:26;;;;;;;;;;;;;;;8.38;100.00;99717.56;5035714;28;19921;-89
2023/01/10 20:33:51;;;;;;;;;;;;;;;8.40;100.00;99720.13;5034003;28;19932;-86
2023/01/10 20:36:18;;;;;;;;;;;;;;;8.41;100.00;99720.09;5031199;28;19983;-85
2023/01/10 20:38:43;;;;;;;;;;;;;;;8.42;100.00;99713.00;5034794;28;20304;-86
2023/01/10 20:41:10;;;;;;;;;;;;;;;8.44;100.00;99711.22;5043476;28;19974;-86
2023/01/10 20:43:36;;;;;;;;;;;;;;;8.43;100.00;99705.06;5045165;28;19917;-87
2023/01/10 20:46:09;;;;;;;;;;;;;;;8.44;100.00;99709.44;5048996;28;19925;-87
2023/01/10 20:48:35;;;;;;;;;;;;;;;8.47;100.00;99711.09;5017767;28;20275;-89
2023/01/10 20:51:00;;;;;;;;;;;;;;;8.45;100.00;99705.03;5035179;28;19923;-92
2023/01/10 20:53:25;;;;;;;;;;;;;;;8.45;100.00;99703.22;5031231;28;19990;-94
2023/01/10 20:55:51;;;;;;;;;;;;;;;8.45;100.00;99705.88;5035403;28;19921;-89
2023/01/10 20:58:16;;;;;;;;;;;;;;;8.47;100.00;99703.19;5036405;28;20008;-88
2023/01/10 21:00:42;;;;;;;;;;;;;;;8.47;100.00;99695.25;5030192;28;20375;-82
2023/01/10 21:03:07;;;;;;;;;;;;;;;8.48;100.00;99689.94;5045815;28;20011;-91
2023/01/10 21:05:34;;;;;;;;;;;;;;;8.48;100.00;99689.94;5040680;28;20335;-87
2023/01/10 21:08:00;;;;;;;;;;;;;;;8.49;100.00;99694.28;5018807;28;19921;-85
2023/01/10 21:10:25;;;;;;;;;;;;;;;8.51;100.00;99684.53;5018376;28;20072;-85
2023/01/10 21:12:50;;;;;;;;;;;;;;;8.51;100.00;99689.81;5017116;28;19921;-90
2023/01/10 21:15:16;;;;;;;;;;;;;;;8.22;100.00;99684.66;5023192;28;20371;-93
2023/01/10 21:17:42;;;;;;;;;;;;;;;6.96;100.00;99682.53;5038305;28;19932;-93
2023/01/10 21:20:08;;;;;;;;;;;;;;;6.69;100.00;99671.91;5057240;28;19924;-87
2023/01/10 21:22:33;;;;;;;;;;;;;;;6.24;100.00;99674.91;5044099;28;20012;-86
2023/01/10 21:25:01;;;;;;;;;;;;;;;6.20;100.00;99678.53;5033398;28;19967;-90
2023/01/10 21:27:29;;;;;;;;;;;;;;;6.04;100.00;99671.94;5055592;28;19916;-87
2023/01/10 21:30:05;;;;;;;;;;;;;;;5.96;100.00;99674.75;5037609;28;19917;-86
2023/01/10 21:32:48;;;;;;;;;;;;;;;;;;;;;
2023/01/10 21:35:14;;;;;;;;;;;;;;;5.74;100.00;99669.16;5035653;28;19921;-88
2023/01/10 21:37:39;;;;;;;;;;;;;;;5.70;100.00;99670.16;5028863;28;20008;-86
2023/01/10 21:40:05;;;;;;;;;;;;;;;5.64;100.00;99664.13;5050929;28;19924;-87
2023/01/10 21:42:33;;;;;;;;;;;;;;;5.52;100.00;99669.69;5047504;28;19944;-86
2023/01/10 21:45:06;;;;;;;;;;;;;;;5.44;100.00;99662.00;5034403;28;19960;-85
2023/01/10 21:47:34;;;;;;;;;;;;;;;5.37;100.00;99656.91;5047070;28;19956;-87
2023/01/10 21:49:59;;;;;;;;;;;;;;;5.49;100.00;99653.13;5037850;28;19920;-86
2023/01/10 21:52:27;;;;;;;;;;;;;;;5.35;100.00;99641.19;5055590;28;19916;-89
2023/01/10 21:54:52;;;;;;;;;;;;;;;5.35;100.00;99637.69;5037453;28;19916;-87
2023/01/10 21:57:21;;;;;;;;;;;;;;;5.25;100.00;99634.44;5036043;28;20734;-86
2023/01/10 21:59:46;;;;;;;;;;;;;;;5.26;100.00;99634.41;5055051;28;19929;-85